Have a Safe July 4th! 

Flight Track Log - Related Links

Times and Time Zones

All times are in EST time to prevent confusion due to time zone crossing. See the SWA760 flight status page for this flight to view local times or setup timezone preferences in your user account.

Time Position Orientation Groundspeed Altitude Reporting Facility
EST Latitude Longitude Course Direction KTS MPH feet Rate Location/Type
Sat 10:07:54 PM 33.4333 -111.9167 90° East 210 242 4,700  Level Phoenix TRACON
Sat 10:09:00 PM 33.3833 -111.8500 132° Southeast 253 291 8,100 3,025 Climbing Phoenix TRACON
Sat 10:09:55 PM 33.3167 -111.8500 180° South 267 307 10,800 2,000 Climbing Phoenix TRACON
Sat 10:11:21 PM 33.3164 -111.9697 270° West 317 365 12,800 1,755 Climbing Albuquerque Center
Sat 10:12:00 PM 33.4487 -112.7659 273° West  Level FlightAware Approximate
Sat 10:12:22 PM 33.3353 -112.0906 281° West 365 420 15,100  Level Albuquerque Center
Sat 10:13:23 PM 33.3556 -112.2178 281° West 385 443 17,900 2,656 Climbing Albuquerque Center
Sat 10:14:24 PM 33.3808 -112.3767 281° West 403 464 20,500 2,508 Climbing Albuquerque Center
Sat 10:15:25 PM 33.4033 -112.5147 281° West 419 482 23,000 2,164 Climbing Albuquerque Center
Sat 10:16:26 PM 33.4219 -112.6303 281° West 418 481 24,900 1,869 Climbing Albuquerque Center
Sat 10:17:27 PM 33.4492 -112.7969 281° West 424 488 26,800 1,721 Climbing Albuquerque Center
Sat 10:18:28 PM 33.4747 -112.9372 282° West 430 495 28,400 1,574 Climbing Albuquerque Center
Sat 10:19:29 PM 33.5025 -113.0783 283° West 436 502 30,000 1,623 Climbing Albuquerque Center
Sat 10:20:30 PM 33.5289 -113.2189 283° West 436 502 31,700 1,328 Climbing Albuquerque Center
Sat 10:21:31 PM 33.5558 -113.3578 283° West 431 496 32,700 1,082 Climbing Albuquerque Center
Sat 10:22:32 PM 33.5822 -113.4997 283° West 436 502 33,900 639 Climbing Albuquerque Center
Sat 10:23:33 PM 33.6069 -113.6392 282° West 433 498 34,000 49 Climbing Albuquerque Center
Sat 10:24:34 PM 33.6322 -113.7750 283° West 426 490 34,000  Level Albuquerque Center
Sat 10:25:35 PM 33.6569 -113.9133 282° West 425 489 34,000  Level Albuquerque Center
Sat 10:26:37 PM 33.6894 -114.0458 286° West 420 483 34,000  Level Albuquerque Center
Sat 10:27:38 PM 33.7594 -114.1831 302° West 406 467 34,000  Level Albuquerque Center
Sat 10:28:39 PM 33.8192 -114.2994 302° West 406 467 34,000  Level Albuquerque Center
Sat 10:29:40 PM 33.8739 -114.4183 299° West 405 466 34,000  Level Albuquerque Center
Sat 10:30:41 PM 33.9294 -114.5364 300° West 407 468 34,000  Level Albuquerque Center
Sat 10:31:54 PM 33.9958 -114.6628 302° West 407 468 34,000  Level Los Angeles Center
Sat 10:32:55 PM 34.0631 -114.8031 300° West 406 467 34,000  Level Los Angeles Center
Sat 10:33:57 PM 34.1203 -114.9211 300° West 407 468 34,000  Level Los Angeles Center
Sat 10:34:58 PM 34.1758 -115.0364 300° West 403 464 34,000  Level Los Angeles Center
Sat 10:36:00 PM 34.2319 -115.1536 300° West 403 464 34,000  Level Los Angeles Center
Sat 10:37:01 PM 34.2878 -115.2708 300° West 404 465 34,000  Level Los Angeles Center
Sat 10:38:02 PM 34.3450 -115.3889 300° West 407 468 34,000 -195 Level Los Angeles Center
Sat 10:39:04 PM 34.4008 -115.5075 300° West 407 468 33,600 -780 Descending Los Angeles Center
Sat 10:40:05 PM 34.4656 -115.6447 300° West 403 464 32,400 -1,073 Descending Los Angeles Center
Sat 10:41:07 PM 34.5194 -115.7575 300° West 394 453 31,400 -976 Descending Los Angeles Center
Sat 10:42:08 PM 34.5708 -115.8689 299° West 383 441 30,400 -683 Descending Los Angeles Center
Sat 10:43:10 PM 34.6267 -115.9867 300° West 398 458 30,000 -195 Descending Los Angeles Center
Sat 10:44:11 PM 34.6844 -116.1083 300° West 410 472 30,000  Level Los Angeles Center
Sat 10:45:13 PM 34.7403 -116.2294 299° West 411 473 30,000  Level Los Angeles Center
Sat 10:46:14 PM 34.7961 -116.3492 300° West 410 472 30,000  Level Los Angeles Center
Sat 10:47:16 PM 34.8517 -116.4703 299° West 410 472 30,000  Level Los Angeles Center
Sat 10:48:17 PM 34.9183 -116.6164 299° West 412 474 30,000  Level Los Angeles Center
Sat 10:49:19 PM 34.9747 -116.7383 299° West 413 475 30,000  Level Los Angeles Center
Sat 10:50:20 PM 35.0306 -116.8606 299° West 414 476 30,000  Level Los Angeles Center
Sat 10:51:22 PM 35.0858 -116.9825 299° West 413 475 30,000  Level Los Angeles Center
Sat 10:52:23 PM 35.1414 -117.1042 299° West 413 475 30,000  Level Los Angeles Center
Sat 10:53:25 PM 35.1967 -117.2264 299° West 414 476 30,000  Level Los Angeles Center
Sat 10:54:26 PM 35.2522 -117.3481 299° West 414 476 30,000  Level Los Angeles Center
Sat 10:55:28 PM 35.3186 -117.4958 299° West 418 481 30,000  Level Los Angeles Center
Sat 10:56:29 PM 35.3731 -117.6200 298° West 419 482 30,000  Level Los Angeles Center
Sat 10:57:30 PM 35.4281 -117.7433 299° West 418 481 30,000  Level Los Angeles Center
Sat 10:58:32 PM 35.4825 -117.8658 299° West 415 478 30,000  Level Los Angeles Center
Sat 10:59:33 PM 35.5378 -117.9875 299° West 411 473 30,000  Level Los Angeles Center
Sat 11:00:35 PM 35.5925 -118.1106 299° West 413 475 30,000  Level Los Angeles Center
Sat 11:01:36 PM 35.6569 -118.2606 298° West 414 476 30,000  Level Los Angeles Center
Sat 11:02:38 PM 35.7122 -118.3836 299° West 413 475 30,000  Level Los Angeles Center
Sat 11:03:39 PM 35.7661 -118.5069 298° West 411 473 30,000  Level Los Angeles Center
Sat 11:04:40 PM 35.8139 -118.6211 297° West 411 473 30,000  Level Los Angeles Center
Sat 11:05:42 PM 35.8781 -118.7700 298° West 411 473 30,000  Level Los Angeles Center
Sat 11:06:43 PM 35.9311 -118.8936 298° West 410 472 30,000  Level Los Angeles Center
Sat 11:07:28 PM 35.9622 -118.9678 297° West 411 473 30,000  Level Oakland Center
Sat 11:08:29 PM 36.0261 -119.1167 298° West 411 473 30,000  Level Oakland Center
Sat 11:09:30 PM 36.0761 -119.2381 297° West 405 466 30,000  Level Oakland Center
Sat 11:10:31 PM 36.1281 -119.3617 298° West 405 466 30,000  Level Oakland Center
Sat 11:11:32 PM 36.1811 -119.4844 298° West 407 468 30,000  Level Oakland Center
Sat 11:12:32 PM 36.2322 -119.6083 297° West 407 468 30,000  Level Oakland Center
Sat 11:13:33 PM 36.2847 -119.7336 297° West 410 472 30,000  Level Oakland Center
Sat 11:14:34 PM 36.3364 -119.8569 298° West 406 467 30,000  Level Oakland Center
Sat 11:15:35 PM 36.3878 -119.9828 297° West 409 471 30,000  Level Oakland Center
Sat 11:16:35 PM 36.4397 -120.1064 298° West 409 471 30,000  Level Oakland Center
Sat 11:17:36 PM 36.4908 -120.2314 297° West 408 470 30,000  Level Oakland Center
Sat 11:18:37 PM 36.5428 -120.3550 298° West 406 467 30,000 -295 Level Oakland Center
Sat 11:19:38 PM 36.5931 -120.4811 296° West 408 470 29,400 -1,328 Descending Oakland Center
Sat 11:20:39 PM 36.6422 -120.6022 297° West 400 460 27,300 -2,231 Descending Oakland Center
Sat 11:21:39 PM 36.6992 -120.7408 297° West 381 438 24,900 -2,132 Descending Oakland Center
Sat 11:22:40 PM 36.7636 -120.8422 308° West 380 437 23,000 -1,869 Descending Oakland Center
Sat 11:23:41 PM 36.8544 -120.9053 331° Northwest 376 433 21,100 -1,770 Descending Oakland Center
Sat 11:24:42 PM 36.9456 -120.9597 334° Northwest 368 423 19,400 -1,686 Descending Oakland Center
Sat 11:25:42 PM 37.0131 -121.0514 313° West 355 409 17,700 -1,785 Descending Oakland Center
Sat 11:26:43 PM 37.0775 -121.1419 312° West 351 404 15,800 -2,213 Descending Oakland Center
Sat 11:27:44 PM 37.1422 -121.2331 312° West 349 402 13,200 -2,164 Descending Oakland Center
Sat 11:28:45 PM 37.2075 -121.3247 312° West 351 404 11,400 -1,438 Descending Oakland Center
Sat 11:29:45 PM 37.2703 -121.4103 313° West 335 386 10,300 -992 Descending Oakland Center
Sat 11:30:46 PM 37.3261 -121.4842 314° West 294 338 9,400 -1,131 Descending Oakland Center
Sat 11:31:47 PM 37.3853 -121.5544 317° Northwest 287 330 8,000 -1,131 Descending Oakland Center
Sat 11:32:48 PM 37.4411 -121.6194 317° Northwest 275 316 7,100 -934 Descending Oakland Center
Sat 11:33:49 PM 37.4750 -121.7044 297° West 275 316 6,100 -694 Descending Oakland Center
Sat 11:34:49 PM 37.5067 -121.7875 296° West 268 308 5,700 -645 Descending Oakland Center
Sat 11:35:50 PM 37.5369 -121.8686 295° West 262 302 4,800 -639 Descending Oakland Center
Sat 11:36:51 PM 37.5669 -121.9489 295° West 259 298 4,400 -443 Descending Oakland Center
Sat 11:37:52 PM 37.5919 -122.0161 295° West 229 264 3,900 -744 Descending Oakland Center
Sat 11:38:52 PM 37.6150 -122.0758 296° West 204 235 2,900 -1,140 Descending Oakland Center
Sat 11:39:53 PM 37.6467 -122.1383 303° West 187 215 1,600 -1,033 Descending Oakland Center
Sat 11:40:54 PM 37.6764 -122.1792 313° West 171 197 800 9,049 Descending Oakland Center
Sat 11:41:55 PM 37.7042 -122.2181 312° West 158 182 20,000 18,885 Climbing Oakland Center
Sat 11:43:00 PM 37.7167 -122.2167 270° West  Level FlightAware Approximate
Sat 11:50:00 PM 37.7213 -122.2212 270° West  Level Estimated

Login

Don't have an account? Register now (free) for customized features, flight alerts, and more!